Terminal Aerodrome Forecast
Issued by NWS Cleveland, OH

Home | Current Version | Previous Version | Text Only | Print | Product List | Glossary Off
Versions: 1 2 3 4 5 6 7 8 9 10 11 12 13 14

353
FTUS41 KCLE 241140
TAFMFD
TAF
KMFD 241140Z 2412/2512 02007KT P6SM BKN007 OVC015
     FM241330 02007KT P6SM OVC015
     FM241600 04010KT P6SM BKN025
     FM241730 04010KT P6SM BKN040
     FM241900 04008KT P6SM SCT040
     FM242300 06004KT P6SM SKC=

USA.gov is the U.S. government's official web portal to all federal, state and local government web resources and services.